sensor_id;sensor_type;location;lat;lon;timestamp;pressure;altitude;pressure_sealevel;temperature;humidity
7754;BME280;3921;42.266;23.122;2022-11-20T00:01:20;94488.25;;;16.57;59.68
7754;BME280;3921;42.266;23.122;2022-11-20T00:03:47;94714.09;;;18.08;59.52
7754;BME280;3921;42.266;23.122;2022-11-20T00:06:18;94743.94;;;18.22;59.51
7754;BME280;3921;42.266;23.122;2022-11-20T00:08:47;94428.06;;;16.25;59.56
7754;BME280;3921;42.266;23.122;2022-11-20T00:11:16;94616.31;;;17.43;59.55
7754;BME280;3921;42.266;23.122;2022-11-20T00:13:43;94654.25;;;17.84;59.64
7754;BME280;3921;42.266;23.122;2022-11-20T00:16:14;94779.72;;;18.53;59.42
7754;BME280;3921;42.266;23.122;2022-11-20T00:18:42;94909.22;;;19.30;59.90
7754;BME280;3921;42.266;23.122;2022-11-20T00:21:11;94876.09;;;19.13;59.48
7754;BME280;3921;42.266;23.122;2022-11-20T00:23:47;94718.03;;;17.96;59.55
7754;BME280;3921;42.266;23.122;2022-11-20T00:26:15;94506.94;;;16.75;59.43
7754;BME280;3921;42.266;23.122;2022-11-20T00:28:43;94477.78;;;16.27;59.40
7754;BME280;3921;42.266;23.122;2022-11-20T00:31:15;94797.84;;;18.65;59.18
7754;BME280;3921;42.266;23.122;2022-11-20T00:34:00;94530.66;;;16.93;59.03
7754;BME280;3921;42.266;23.122;2022-11-20T00:36:33;94469.78;;;16.55;59.08
7754;BME280;3921;42.266;23.122;2022-11-20T00:39:02;94831.19;;;18.77;59.35
7754;BME280;3921;42.266;23.122;2022-11-20T00:41:31;94430.66;;;16.23;59.11
7754;BME280;3921;42.266;23.122;2022-11-20T00:44:00;94799.91;;;18.75;59.53
7754;BME280;3921;42.266;23.122;2022-11-20T00:46:31;94597.59;;;17.45;59.29
7754;BME280;3921;42.266;23.122;2022-11-20T00:48:58;94693.63;;;17.75;59.23
7754;BME280;3921;42.266;23.122;2022-11-20T00:51:28;94474.56;;;16.61;58.62
7754;BME280;3921;42.266;23.122;2022-11-20T00:53:58;94910.25;;;19.44;58.89
7754;BME280;3921;42.266;23.122;2022-11-20T00:56:28;94712.81;;;18.34;58.47
7754;BME280;3921;42.266;23.122;2022-11-20T00:59:02;94806.56;;;18.78;58.73
7754;BME280;3921;42.266;23.122;2022-11-20T01:01:29;94651.97;;;17.77;58.42
7754;BME280;3921;42.266;23.122;2022-11-20T01:03:59;94625.78;;;17.58;58.92
7754;BME280;3921;42.266;23.122;2022-11-20T01:06:30;94680.81;;;18.13;58.84
7754;BME280;3921;42.266;23.122;2022-11-20T01:08:59;94733.03;;;18.37;59.08
7754;BME280;3921;42.266;23.122;2022-11-20T01:11:37;94539.75;;;17.16;58.99
7754;BME280;3921;42.266;23.122;2022-11-20T01:14:07;94523.56;;;16.99;58.94
7754;BME280;3921;42.266;23.122;2022-11-20T01:16:38;94736.47;;;18.36;59.06
7754;BME280;3921;42.266;23.122;2022-11-20T01:19:06;94880.44;;;19.46;59.01
7754;BME280;3921;42.266;23.122;2022-11-20T01:21:35;94562.16;;;17.61;59.00
7754;BME280;3921;42.266;23.122;2022-11-20T01:24:04;94455.56;;;16.51;58.68
7754;BME280;3921;42.266;23.122;2022-11-20T01:26:35;94643.41;;;17.97;58.58
7754;BME280;3921;42.266;23.122;2022-11-20T01:29:03;94736.91;;;18.44;59.11
7754;BME280;3921;42.266;23.122;2022-11-20T01:31:33;94696.00;;;18.31;59.03
7754;BME280;3921;42.266;23.122;2022-11-20T01:34:03;94389.75;;;16.31;58.28
7754;BME280;3921;42.266;23.122;2022-11-20T01:36:31;94429.06;;;16.58;58.82
7754;BME280;3921;42.266;23.122;2022-11-20T01:39:02;94674.94;;;18.29;59.23
7754;BME280;3921;42.266;23.122;2022-11-20T01:41:33;94735.81;;;18.67;59.04
7754;BME280;3921;42.266;23.122;2022-11-20T01:44:20;94661.59;;;18.24;58.93
7754;BME280;3921;42.266;23.122;2022-11-20T01:46:53;94773.50;;;19.11;58.88
7754;BME280;3921;42.266;23.122;2022-11-20T01:49:25;94691.34;;;18.57;58.59
7754;BME280;3921;42.266;23.122;2022-11-20T01:51:56;94504.53;;;17.27;58.48
7754;BME280;3921;42.266;23.122;2022-11-20T01:54:32;94653.00;;;18.27;58.59
7754;BME280;3921;42.266;23.122;2022-11-20T01:57:07;94659.38;;;18.36;58.52
7754;BME280;3921;42.266;23.122;2022-11-20T01:59:40;94514.00;;;17.23;58.22
7754;BME280;3921;42.266;23.122;2022-11-20T02:02:09;94838.50;;;19.35;58.50
7754;BME280;3921;42.266;23.122;2022-11-20T02:04:36;94537.63;;;17.60;58.20
7754;BME280;3921;42.266;23.122;2022-11-20T02:07:04;94457.44;;;17.03;58.83
7754;BME280;3921;42.266;23.122;2022-11-20T02:09:31;94391.84;;;16.59;58.35
7754;BME280;3921;42.266;23.122;2022-11-20T02:11:58;94468.50;;;17.02;58.46
7754;BME280;3921;42.266;23.122;2022-11-20T02:14:30;94660.50;;;18.13;58.65
7754;BME280;3921;42.266;23.122;2022-11-20T02:16:57;94355.94;;;16.13;58.25
7754;BME280;3921;42.266;23.122;2022-11-20T02:19:30;94872.28;;;19.39;59.17
7754;BME280;3921;42.266;23.122;2022-11-20T02:22:13;94444.53;;;16.90;58.55
7754;BME280;3921;42.266;23.122;2022-11-20T02:24:43;94857.31;;;19.33;58.74
7754;BME280;3921;42.266;23.122;2022-11-20T02:27:15;94633.94;;;18.01;59.06
7754;BME280;3921;42.266;23.122;2022-11-20T02:29:49;94861.03;;;19.26;59.45
7754;BME280;3921;42.266;23.122;2022-11-20T02:32:18;94507.56;;;17.16;59.56
7754;BME280;3921;42.266;23.122;2022-11-20T02:34:46;94624.34;;;17.89;59.97
7754;BME280;3921;42.266;23.122;2022-11-20T02:37:15;94764.97;;;18.60;61.05
7754;BME280;3921;42.266;23.122;2022-11-20T02:39:44;94665.69;;;17.92;60.38
7754;BME280;3921;42.266;23.122;2022-11-20T02:42:12;94704.53;;;18.13;60.32
7754;BME280;3921;42.266;23.122;2022-11-20T02:44:41;94357.72;;;15.92;60.16
7754;BME280;3921;42.266;23.122;2022-11-20T02:47:13;94331.69;;;15.88;61.07
7754;BME280;3921;42.266;23.122;2022-11-20T02:49:43;94474.09;;;16.72;61.01
7754;BME280;3921;42.266;23.122;2022-11-20T02:52:10;94466.94;;;16.61;61.05
7754;BME280;3921;42.266;23.122;2022-11-20T02:54:37;94428.81;;;16.27;60.61
7754;BME280;3921;42.266;23.122;2022-11-20T02:57:05;94479.28;;;16.50;60.98
7754;BME280;3921;42.266;23.122;2022-11-20T02:59:33;94814.06;;;18.62;62.89
7754;BME280;3921;42.266;23.122;2022-11-20T03:02:00;94844.16;;;18.54;63.24
7754;BME280;3921;42.266;23.122;2022-11-20T03:04:30;94727.50;;;17.93;62.31
7754;BME280;3921;42.266;23.122;2022-11-20T03:06:57;94814.66;;;18.50;61.30
7754;BME280;3921;42.266;23.122;2022-11-20T03:09:34;94661.59;;;17.71;61.03
7754;BME280;3921;42.266;23.122;2022-11-20T03:12:09;94623.88;;;17.25;60.92
7754;BME280;3921;42.266;23.122;2022-11-20T03:14:37;94639.00;;;17.29;61.43
7754;BME280;3921;42.266;23.122;2022-11-20T03:17:04;94595.28;;;17.03;60.92
7754;BME280;3921;42.266;23.122;2022-11-20T03:19:32;94489.44;;;16.31;61.04
7754;BME280;3921;42.266;23.122;2022-11-20T03:22:01;94627.03;;;17.31;61.03
7754;BME280;3921;42.266;23.122;2022-11-20T03:24:28;94532.81;;;16.63;60.97
7754;BME280;3921;42.266;23.122;2022-11-20T03:26:55;94651.97;;;17.22;61.22
7754;BME280;3921;42.266;23.122;2022-11-20T03:29:24;94398.22;;;15.53;61.32
7754;BME280;3921;42.266;23.122;2022-11-20T03:31:51;94640.09;;;17.04;61.34
7754;BME280;3921;42.266;23.122;2022-11-20T03:34:18;94878.44;;;18.45;62.03
7754;BME280;3921;42.266;23.122;2022-11-20T03:36:45;94880.34;;;18.42;61.66
7754;BME280;3921;42.266;23.122;2022-11-20T03:39:17;94930.88;;;18.86;61.81
7754;BME280;3921;42.266;23.122;2022-11-20T03:41:48;94511.16;;;16.18;61.96
7754;BME280;3921;42.266;23.122;2022-11-20T03:44:21;94946.25;;;19.01;62.95
7754;BME280;3921;42.266;23.122;2022-11-20T03:46:52;94429.53;;;15.72;63.23
7754;BME280;3921;42.266;23.122;2022-11-20T03:49:19;94560.13;;;16.58;63.53
7754;BME280;3921;42.266;23.122;2022-11-20T03:51:52;94659.88;;;17.16;64.04
7754;BME280;3921;42.266;23.122;2022-11-20T03:54:19;94948.25;;;18.77;65.04
7754;BME280;3921;42.266;23.122;2022-11-20T03:56:48;94959.69;;;18.86;65.96
7754;BME280;3921;42.266;23.122;2022-11-20T03:59:20;94956.28;;;18.87;65.82
7754;BME280;3921;42.266;23.122;2022-11-20T04:02:11;94438.78;;;15.51;66.53
7754;BME280;3921;42.266;23.122;2022-11-20T04:05:01;94878.47;;;18.26;66.53
7754;BME280;3921;42.266;23.122;2022-11-20T04:07:34;94719.00;;;17.18;67.26
7754;BME280;3921;42.266;23.122;2022-11-20T04:10:06;94662.88;;;16.87;69.25
7754;BME280;3921;42.266;23.122;2022-11-20T04:12:33;94960.16;;;18.58;71.64
7754;BME280;3921;42.266;23.122;2022-11-20T04:15:00;94970.66;;;18.50;72.33
7754;BME280;3921;42.266;23.122;2022-11-20T04:17:30;94617.50;;;16.19;70.86
7754;BME280;3921;42.266;23.122;2022-11-20T04:19:57;94841.81;;;17.55;73.40
7754;BME280;3921;42.266;23.122;2022-11-20T04:22:28;94700.03;;;16.47;74.00
7754;BME280;3921;42.266;23.122;2022-11-20T04:25:11;94593.66;;;15.62;77.11
7754;BME280;3921;42.266;23.122;2022-11-20T04:27:48;94971.75;;;18.07;78.55
7754;BME280;3921;42.266;23.122;2022-11-20T04:30:16;94968.81;;;17.96;79.86
7754;BME280;3921;42.266;23.122;2022-11-20T04:32:47;94679.72;;;16.06;81.03
7754;BME280;3921;42.266;23.122;2022-11-20T04:35:18;94657.38;;;15.74;82.10
7754;BME280;3921;42.266;23.122;2022-11-20T04:37:45;94585.06;;;15.23;82.01
7754;BME280;3921;42.266;23.122;2022-11-20T04:40:15;94718.84;;;15.99;81.87
7754;BME280;3921;42.266;23.122;2022-11-20T04:42:42;94579.81;;;15.05;82.81
7754;BME280;3921;42.266;23.122;2022-11-20T04:45:09;94880.50;;;17.01;83.38
7754;BME280;3921;42.266;23.122;2022-11-20T04:47:36;94622.00;;;15.27;83.72
7754;BME280;3921;42.266;23.122;2022-11-20T04:50:05;94761.69;;;15.83;84.51
7754;BME280;3921;42.266;23.122;2022-11-20T04:52:32;94770.41;;;15.98;84.39
7754;BME280;3921;42.266;23.122;2022-11-20T04:54:59;95013.44;;;17.40;85.19
7754;BME280;3921;42.266;23.122;2022-11-20T04:57:26;94984.59;;;17.41;84.39
7754;BME280;3921;42.266;23.122;2022-11-20T04:59:53;94594.56;;;14.94;83.58
7754;BME280;3921;42.266;23.122;2022-11-20T05:02:20;94888.31;;;16.52;84.48
7754;BME280;3921;42.266;23.122;2022-11-20T05:04:47;94944.34;;;16.90;84.00
7754;BME280;3921;42.266;23.122;2022-11-20T05:07:17;95025.72;;;17.29;84.32
7754;BME280;3921;42.266;23.122;2022-11-20T05:09:44;94801.03;;;15.92;84.66
7754;BME280;3921;42.266;23.122;2022-11-20T05:12:21;95013.38;;;17.20;85.40
7754;BME280;3921;42.266;23.122;2022-11-20T05:14:48;94531.91;;;14.32;85.21
7754;BME280;3921;42.266;23.122;2022-11-20T05:17:15;94729.34;;;15.45;86.18
7754;BME280;3921;42.266;23.122;2022-11-20T05:19:42;94923.06;;;16.72;86.95
7754;BME280;3921;42.266;23.122;2022-11-20T05:22:12;94981.03;;;17.03;87.51
7754;BME280;3921;42.266;23.122;2022-11-20T05:25:04;94532.91;;;14.03;88.51
7754;BME280;3921;42.266;23.122;2022-11-20T05:28:13;94643.81;;;14.60;88.37
7754;BME280;3921;42.266;23.122;2022-11-20T05:33:40;94422.91;;;13.22;89.30
7754;BME280;3921;42.266;23.122;2022-11-20T05:34:40;94975.19;;;16.81;90.91
7754;BME280;3921;42.266;23.122;2022-11-20T05:37:07;94843.13;;;15.73;90.50
7754;BME280;3921;42.266;23.122;2022-11-20T05:39:35;94545.75;;;13.97;90.60
7754;BME280;3921;42.266;23.122;2022-11-20T05:42:03;94782.13;;;15.32;90.63
7754;BME280;3921;42.266;23.122;2022-11-20T05:44:50;94999.22;;;16.70;91.30
7754;BME280;3921;42.266;23.122;2022-11-20T05:47:17;94587.84;;;14.21;91.49
7754;BME280;3921;42.266;23.122;2022-11-20T05:49:54;94874.63;;;15.89;91.37
7754;BME280;3921;42.266;23.122;2022-11-20T05:52:29;94906.97;;;16.28;90.19
7754;BME280;3921;42.266;23.122;2022-11-20T05:54:56;94820.56;;;15.66;87.83
7754;BME280;3921;42.266;23.122;2022-11-20T05:57:24;94448.13;;;13.47;87.19
7754;BME280;3921;42.266;23.122;2022-11-20T05:59:51;94776.88;;;15.60;86.71
7754;BME280;3921;42.266;23.122;2022-11-20T06:02:18;94983.31;;;16.89;86.38
7754;BME280;3921;42.266;23.122;2022-11-20T06:04:45;94626.19;;;14.82;84.62
7754;BME280;3921;42.266;23.122;2022-11-20T06:07:12;94702.72;;;15.11;84.63
7754;BME280;3921;42.266;23.122;2022-11-20T06:09:41;94419.97;;;13.60;84.07
7754;BME280;3921;42.266;23.122;2022-11-20T06:12:08;94391.41;;;13.34;81.79
7754;BME280;3921;42.266;23.122;2022-11-20T06:14:37;94612.06;;;14.77;82.34
7754;BME280;3921;42.266;23.122;2022-11-20T06:17:04;94759.06;;;15.63;83.75
7754;BME280;3921;42.266;23.122;2022-11-20T06:19:30;94929.06;;;16.48;85.00
7754;BME280;3921;42.266;23.122;2022-11-20T06:22:00;94904.56;;;16.68;86.53
7754;BME280;3921;42.266;23.122;2022-11-20T06:24:28;94670.28;;;14.99;86.62
7754;BME280;3921;42.266;23.122;2022-11-20T06:26:58;94958.81;;;16.88;87.90
7754;BME280;3921;42.266;23.122;2022-11-20T06:29:25;94444.81;;;13.70;87.88
7754;BME280;3921;42.266;23.122;2022-11-20T06:31:58;94952.31;;;16.59;89.30
7754;BME280;3921;42.266;23.122;2022-11-20T06:34:28;94494.28;;;13.76;85.49
7754;BME280;3921;42.266;23.122;2022-11-20T06:36:57;94577.16;;;14.38;86.51
7754;BME280;3921;42.266;23.122;2022-11-20T06:39:26;94403.94;;;13.36;87.23
7754;BME280;3921;42.266;23.122;2022-11-20T06:41:56;94709.03;;;15.23;87.99
7754;BME280;3921;42.266;23.122;2022-11-20T06:44:25;94847.03;;;15.81;86.83
7754;BME280;3921;42.266;23.122;2022-11-20T06:46:54;94715.66;;;15.03;87.20
7754;BME280;3921;42.266;23.122;2022-11-20T06:49:23;94613.22;;;14.43;85.38
7754;BME280;3921;42.266;23.122;2022-11-20T06:51:53;94942.00;;;16.40;83.87
7754;BME280;3921;42.266;23.122;2022-11-20T06:54:23;94850.41;;;16.04;81.75
7754;BME280;3921;42.266;23.122;2022-11-20T06:56:55;94898.69;;;16.46;80.43
7754;BME280;3921;42.266;23.122;2022-11-20T06:59:31;94812.06;;;15.91;79.59
7754;BME280;3921;42.266;23.122;2022-11-20T07:02:09;94620.91;;;14.65;78.62
7754;BME280;3921;42.266;23.122;2022-11-20T07:04:38;94897.41;;;16.58;78.37
7754;BME280;3921;42.266;23.122;2022-11-20T07:07:14;94799.06;;;16.00;78.53
7754;BME280;3921;42.266;23.122;2022-11-20T07:09:41;94864.28;;;16.39;79.47
7754;BME280;3921;42.266;23.122;2022-11-20T07:12:08;94548.59;;;14.36;81.41
7754;BME280;3921;42.266;23.122;2022-11-20T07:14:38;94516.63;;;14.12;83.97
7754;BME280;3921;42.266;23.122;2022-11-20T07:17:05;94429.31;;;13.81;83.93
7754;BME280;3921;42.266;23.122;2022-11-20T07:19:31;94757.44;;;15.60;86.18
7754;BME280;3921;42.266;23.122;2022-11-20T07:22:00;94847.56;;;16.35;86.09
7754;BME280;3921;42.266;23.122;2022-11-20T07:24:27;94531.78;;;14.12;86.77
7754;BME280;3921;42.266;23.122;2022-11-20T07:26:54;94833.41;;;16.07;87.29
7754;BME280;3921;42.266;23.122;2022-11-20T07:29:21;94691.22;;;15.02;87.40
7754;BME280;3921;42.266;23.122;2022-11-20T07:31:48;94885.16;;;16.24;87.48
7754;BME280;3921;42.266;23.122;2022-11-20T07:34:15;94899.84;;;16.37;87.87
7754;BME280;3921;42.266;23.122;2022-11-20T07:36:42;94994.50;;;16.83;88.74
7754;BME280;3921;42.266;23.122;2022-11-20T07:39:10;94925.88;;;16.19;88.24
7754;BME280;3921;42.266;23.122;2022-11-20T07:41:37;94850.28;;;15.85;88.42
7754;BME280;3921;42.266;23.122;2022-11-20T07:44:04;94944.00;;;16.32;88.70
7754;BME280;3921;42.266;23.122;2022-11-20T07:46:31;94862.19;;;15.83;88.82
7754;BME280;3921;42.266;23.122;2022-11-20T07:48:58;95019.28;;;16.77;89.80
7754;BME280;3921;42.266;23.122;2022-11-20T07:51:26;95016.09;;;16.71;90.91
7754;BME280;3921;42.266;23.122;2022-11-20T07:53:53;94641.28;;;14.35;90.97
7754;BME280;3921;42.266;23.122;2022-11-20T07:56:21;94824.84;;;15.64;91.15
7754;BME280;3921;42.266;23.122;2022-11-20T07:58:48;94689.13;;;14.90;91.26
7754;BME280;3921;42.266;23.122;2022-11-20T08:01:15;94930.72;;;16.25;91.79
7754;BME280;3921;42.266;23.122;2022-11-20T08:03:42;94754.75;;;15.18;92.06
7754;BME280;3921;42.266;23.122;2022-11-20T08:06:09;94957.09;;;16.43;91.81
7754;BME280;3921;42.266;23.122;2022-11-20T08:08:36;94704.94;;;14.97;91.53
7754;BME280;3921;42.266;23.122;2022-11-20T08:11:04;94839.72;;;15.74;90.68
7754;BME280;3921;42.266;23.122;2022-11-20T08:13:50;94915.59;;;16.24;90.44
7754;BME280;3921;42.266;23.122;2022-11-20T08:16:34;95003.03;;;16.82;89.73
7754;BME280;3921;42.266;23.122;2022-11-20T08:19:01;94700.63;;;14.75;90.02
7754;BME280;3921;42.266;23.122;2022-11-20T08:21:38;95017.66;;;16.76;91.65
7754;BME280;3921;42.266;23.122;2022-11-20T08:24:26;94532.34;;;13.70;91.93
7754;BME280;3921;42.266;23.122;2022-11-20T08:27:01;94846.94;;;15.59;92.61
7754;BME280;3921;42.266;23.122;2022-11-20T08:32:27;94858.63;;;15.63;96.01
7754;BME280;3921;42.266;23.122;2022-11-20T08:34:54;94529.81;;;13.45;96.63
7754;BME280;3921;42.266;23.122;2022-11-20T08:37:20;94870.47;;;15.63;98.10
7754;BME280;3921;42.266;23.122;2022-11-20T08:39:47;94682.63;;;14.33;98.93
7754;BME280;3921;42.266;23.122;2022-11-20T08:42:17;94791.09;;;14.91;98.02
7754;BME280;3921;42.266;23.122;2022-11-20T08:44:44;95042.50;;;16.42;99.67
7754;BME280;3921;42.266;23.122;2022-11-20T08:47:11;94943.66;;;15.71;100.00
7754;BME280;3921;42.266;23.122;2022-11-20T08:49:39;95026.72;;;16.34;100.00
7754;BME280;3921;42.266;23.122;2022-11-20T08:52:08;94959.88;;;15.90;100.00
7754;BME280;3921;42.266;23.122;2022-11-20T08:54:43;94938.34;;;15.78;100.00
7754;BME280;3921;42.266;23.122;2022-11-20T09:00:10;94627.25;;;14.02;98.28
7754;BME280;3921;42.266;23.122;2022-11-20T09:02:37;94869.47;;;15.42;98.74
7754;BME280;3921;42.266;23.122;2022-11-20T09:05:06;94640.44;;;14.10;98.25
7754;BME280;3921;42.266;23.122;2022-11-20T09:07:33;95000.09;;;16.23;98.04
7754;BME280;3921;42.266;23.122;2022-11-20T09:10:00;94900.91;;;15.61;96.51
7754;BME280;3921;42.266;23.122;2022-11-20T09:12:27;94889.38;;;15.53;94.55
7754;BME280;3921;42.266;23.122;2022-11-20T09:14:54;94828.47;;;15.09;95.90
7754;BME280;3921;42.266;23.122;2022-11-20T09:17:21;94798.88;;;14.86;95.94
7754;BME280;3921;42.266;23.122;2022-11-20T09:19:48;95030.97;;;16.34;94.74
7754;BME280;3921;42.266;23.122;2022-11-20T09:22:16;94982.41;;;15.98;96.13
7754;BME280;3921;42.266;23.122;2022-11-20T09:24:43;94751.31;;;14.46;97.16
7754;BME280;3921;42.266;23.122;2022-11-20T09:27:10;94962.84;;;15.78;96.66
7754;BME280;3921;42.266;23.122;2022-11-20T09:29:37;94800.00;;;14.77;97.39
7754;BME280;3921;42.266;23.122;2022-11-20T09:32:04;94663.25;;;13.82;98.32
7754;BME280;3921;42.266;23.122;2022-11-20T09:34:34;94769.97;;;14.68;99.32
7754;BME280;3921;42.266;23.122;2022-11-20T09:37:01;95034.31;;;16.34;99.29
7754;BME280;3921;42.266;23.122;2022-11-20T09:39:31;94806.19;;;15.19;98.73
7754;BME280;3921;42.266;23.122;2022-11-20T09:42:25;94990.28;;;16.37;99.16
7754;BME280;3921;42.266;23.122;2022-11-20T09:45:05;94882.25;;;15.64;99.81
7754;BME280;3921;42.266;23.122;2022-11-20T09:47:48;94486.19;;;13.15;99.52
7754;BME280;3921;42.266;23.122;2022-11-20T09:50:27;94661.50;;;14.60;99.73
7754;BME280;3921;42.266;23.122;2022-11-20T09:53:08;94761.19;;;15.27;99.95
7754;BME280;3921;42.266;23.122;2022-11-20T09:55:42;94593.63;;;14.25;99.33
7754;BME280;3921;42.266;23.122;2022-11-20T09:58:22;94465.34;;;13.61;98.83
7754;BME280;3921;42.266;23.122;2022-11-20T10:00:56;94450.34;;;13.57;98.85
7754;BME280;3921;42.266;23.122;2022-11-20T10:03:42;94581.88;;;14.49;97.71
7754;BME280;3921;42.266;23.122;2022-11-20T10:06:17;94768.38;;;15.62;97.37
7754;BME280;3921;42.266;23.122;2022-11-20T10:08:48;94614.91;;;14.68;95.45
7754;BME280;3921;42.266;23.122;2022-11-20T10:11:26;94602.47;;;14.61;94.00
7754;BME280;3921;42.266;23.122;2022-11-20T10:14:07;94822.69;;;16.01;93.61
7754;BME280;3921;42.266;23.122;2022-11-20T10:16:49;94878.50;;;16.43;93.38
7754;BME280;3921;42.266;23.122;2022-11-20T10:20:00;94903.28;;;16.80;93.02
7754;BME280;3921;42.266;23.122;2022-11-20T10:22:40;94637.25;;;15.02;91.87
7754;BME280;3921;42.266;23.122;2022-11-20T10:25:14;94493.47;;;13.99;89.87
7754;BME280;3921;42.266;23.122;2022-11-20T10:31:43;94407.16;;;13.66;87.78
7754;BME280;3921;42.266;23.122;2022-11-20T10:34:25;94448.09;;;13.97;85.19
7754;BME280;3921;42.266;23.122;2022-11-20T10:37:02;94427.16;;;13.70;83.60
7754;BME280;3921;42.266;23.122;2022-11-20T10:42:30;94811.19;;;16.36;83.62
7754;BME280;3921;42.266;23.122;2022-11-20T10:45:11;94484.13;;;14.26;85.44
7754;BME280;3921;42.266;23.122;2022-11-20T10:47:47;94361.34;;;13.76;84.62
7754;BME280;3921;42.266;23.122;2022-11-20T10:50:44;94358.81;;;13.76;82.77
7754;BME280;3921;42.266;23.122;2022-11-20T10:54:11;94899.28;;;17.17;80.24
7754;BME280;3921;42.266;23.122;2022-11-20T11:00:00;94923.84;;;17.16;81.34
7754;BME280;3921;42.266;23.122;2022-11-20T11:02:55;94949.75;;;17.24;80.76
7754;BME280;3921;42.266;23.122;2022-11-20T11:05:48;94763.38;;;16.05;84.61
7754;BME280;3921;42.266;23.122;2022-11-20T11:08:36;94858.97;;;16.45;88.83
7754;BME280;3921;42.266;23.122;2022-11-20T11:11:18;94700.56;;;15.00;89.23
7754;BME280;3921;42.266;23.122;2022-11-20T11:13:51;94733.00;;;15.14;90.01
7754;BME280;3921;42.266;23.122;2022-11-20T11:16:21;94842.84;;;15.80;90.46
7754;BME280;3921;42.266;23.122;2022-11-20T11:18:48;94594.72;;;14.18;92.46
7754;BME280;3921;42.266;23.122;2022-11-20T11:21:22;94522.41;;;13.90;90.58
7754;BME280;3921;42.266;23.122;2022-11-20T11:23:58;94986.84;;;16.61;91.35
7754;BME280;3921;42.266;23.122;2022-11-20T11:26:29;94604.59;;;13.99;91.19
7754;BME280;3921;42.266;23.122;2022-11-20T11:29:15;94544.06;;;13.46;89.80
7754;BME280;3921;42.266;23.122;2022-11-20T11:31:46;94792.38;;;15.04;90.99
7754;BME280;3921;42.266;23.122;2022-11-20T11:34:17;94924.28;;;15.93;91.29
7754;BME280;3921;42.266;23.122;2022-11-20T11:36:54;94798.53;;;14.97;91.74
7754;BME280;3921;42.266;23.122;2022-11-20T11:39:30;95024.13;;;16.12;93.44
7754;BME280;3921;42.266;23.122;2022-11-20T11:42:00;95023.91;;;16.18;93.51
7754;BME280;3921;42.266;23.122;2022-11-20T11:44:30;94556.63;;;12.93;94.08
7754;BME280;3921;42.266;23.122;2022-11-20T11:47:21;94555.78;;;12.64;94.79
7754;BME280;3921;42.266;23.122;2022-11-20T11:50:01;94562.06;;;12.79;95.43
7754;BME280;3921;42.266;23.122;2022-11-20T11:52:31;95064.38;;;15.70;96.46
7754;BME280;3921;42.266;23.122;2022-11-20T11:55:04;95078.16;;;15.61;97.50
7754;BME280;3921;42.266;23.122;2022-11-20T11:57:48;94599.66;;;12.57;97.63
7754;BME280;3921;42.266;23.122;2022-11-20T12:00:18;94842.38;;;14.15;97.25
7754;BME280;3921;42.266;23.122;2022-11-20T12:03:00;94634.00;;;12.60;98.52
7754;BME280;3921;42.266;23.122;2022-11-20T12:05:38;94608.47;;;12.72;98.43
7754;BME280;3921;42.266;23.122;2022-11-20T12:08:18;94541.19;;;12.46;97.71
7754;BME280;3921;42.266;23.122;2022-11-20T12:10:55;94638.06;;;12.95;97.66
7754;BME280;3921;42.266;23.122;2022-11-20T12:13:38;94499.94;;;12.19;97.97
7754;BME280;3921;42.266;23.122;2022-11-20T12:16:14;94800.22;;;14.43;97.70
7754;BME280;3921;42.266;23.122;2022-11-20T12:18:42;94513.75;;;12.65;97.12
7754;BME280;3921;42.266;23.122;2022-11-20T12:21:23;94910.13;;;15.12;98.33
7754;BME280;3921;42.266;23.122;2022-11-20T12:24:36;94497.56;;;12.72;98.21
7754;BME280;3921;42.266;23.122;2022-11-20T12:27:31;94954.22;;;15.57;99.70
7754;BME280;3921;42.266;23.122;2022-11-20T12:30:08;94722.06;;;14.12;100.00
7754;BME280;3921;42.266;23.122;2022-11-20T12:35:42;94401.75;;;12.19;100.00
7754;BME280;3921;42.266;23.122;2022-11-20T12:41:34;94791.88;;;14.68;100.00
7754;BME280;3921;42.266;23.122;2022-11-20T12:44:38;94648.94;;;13.81;100.00
7754;BME280;3921;42.266;23.122;2022-11-20T12:47:33;94630.09;;;13.65;100.00
7754;BME280;3921;42.266;23.122;2022-11-20T12:50:12;94944.31;;;15.76;100.00
7754;BME280;3921;42.266;23.122;2022-11-20T12:52:47;94963.69;;;15.77;100.00
7754;BME280;3921;42.266;23.122;2022-11-20T12:55:21;94930.66;;;15.80;100.00
7754;BME280;3921;42.266;23.122;2022-11-20T12:57:57;94828.66;;;15.03;100.00
7754;BME280;3921;42.266;23.122;2022-11-20T13:00:25;94699.03;;;14.46;100.00
7754;BME280;3921;42.266;23.122;2022-11-20T13:03:06;94558.59;;;13.66;100.00
7754;BME280;3921;42.266;23.122;2022-11-20T13:05:49;94845.84;;;15.18;100.00
7754;BME280;3921;42.266;23.122;2022-11-20T13:08:23;94517.84;;;13.25;100.00
7754;BME280;3921;42.266;23.122;2022-11-20T13:10:56;94876.56;;;15.57;100.00
7754;BME280;3921;42.266;23.122;2022-11-20T13:13:33;94814.28;;;15.28;100.00
7754;BME280;3921;42.266;23.122;2022-11-20T13:16:06;94916.81;;;15.90;100.00
7754;BME280;3921;42.266;23.122;2022-11-20T13:18:41;94899.84;;;15.92;100.00
7754;BME280;3921;42.266;23.122;2022-11-20T13:21:16;94901.38;;;15.96;100.00
7754;BME280;3921;42.266;23.122;2022-11-20T13:23:45;94914.13;;;15.95;100.00
7754;BME280;3921;42.266;23.122;2022-11-20T13:26:22;94354.63;;;12.51;100.00
7754;BME280;3921;42.266;23.122;2022-11-20T13:29:08;94693.59;;;14.58;100.00
7754;BME280;3921;42.266;23.122;2022-11-20T13:31:36;94687.81;;;14.80;100.00
7754;BME280;3921;42.266;23.122;2022-11-20T13:34:06;94498.34;;;13.55;99.76
7754;BME280;3921;42.266;23.122;2022-11-20T13:36:34;94520.09;;;13.84;98.66
7754;BME280;3921;42.266;23.122;2022-11-20T13:39:02;94504.78;;;13.64;98.10
7754;BME280;3921;42.266;23.122;2022-11-20T13:41:31;94403.25;;;13.06;97.39
7754;BME280;3921;42.266;23.122;2022-11-20T13:44:12;94509.28;;;13.80;96.99
7754;BME280;3921;42.266;23.122;2022-11-20T13:46:49;94680.28;;;15.02;96.10
7754;BME280;3921;42.266;23.122;2022-11-20T13:49:34;94543.16;;;13.98;95.61
7754;BME280;3921;42.266;23.122;2022-11-20T13:52:42;94434.88;;;13.42;94.80
7754;BME280;3921;42.266;23.122;2022-11-20T13:55:24;94665.53;;;15.13;93.54
7754;BME280;3921;42.266;23.122;2022-11-20T13:58:05;94408.50;;;13.26;93.82
7754;BME280;3921;42.266;23.122;2022-11-20T14:00:45;94846.72;;;16.12;94.55
7754;BME280;3921;42.266;23.122;2022-11-20T14:03:18;94448.34;;;13.66;93.91